Terminal Aerodrome Forecast
Issued by NWS Sioux Falls, SD

Home | Current Version | Previous Version | Text Only | Print | Product List | Glossary On
Versions: 1 2 3 4 5 6 7 8 9 10 11 12 13 14 15 16 17 18 19 20 21 22 23 24 25 26 27 28 29 30
000
FTUS43 KFSD 102338
TAFSUX
TAF
KSUX 102338Z 1100/1124 27006KT P6SM FEW250
     FM110300 20004KT P6SM SCT250
     FM111100 27013KT P6SM SCT250
     FM111300 30015G26KT P6SM SCT060
     FM111500 31023G33KT P6SM BKN035
     FM111700 32025G36KT P6SM OVC030
     FM112200 33023G37KT P6SM OVC035=

USA.gov is the U.S. government's official web portal to all federal, state and local government web resources and services.